Aérodrome :
LOGIN :

S'inscrire | Disclaimer

   EN    FR    IT 

 










Légende :    VFR   VFR Marginal   IFR   IFR Intensif   IFR Très Intensif
Visi : 
Plafond : 
>= 8 km
>= 3000ft
5 à 8 km
1000 à 3000 ft
1500m à 5 km
500 à 1000 ft
800 à 1500m
200 à 500 ft
< 800m
< 200 ft
Symboles :   Orages  Brouillard  Fortes neiges  Fortes précipitations  Vent > 20 kt
SIGMETs :   Divers  Orages  Givrage  Turbulence  Onde Orograph.  Cendres Volcan.







- Altitude de l'aérodrome : 257 ft
- Code IATA : MAN
- Voir les cartes d'approche


EGCC - Manchester

DERNIER METAR :
  • 251220Z AUTO 21011KT 160V230 9999 NCD 15/06 Q1035 NOSIG

METARs EXPIRÉS :
  • 251150Z AUTO 22012KT 9999 NCD 14/05 Q1036 NOSIG
  • 251120Z AUTO 20010KT 160V230 9999 NCD 14/06 Q1036
  • 251050Z AUTO 19006KT 150V240 9999 NCD 13/06 Q1036 NOSIG
  • 251020Z AUTO 21007KT 180V240 9999 NCD 13/07 Q1037 NOSIG
  • 250950Z AUTO 20007KT 170V240 9999 NCD 12/06 Q1037

TAF TAF EGCC
Valide du 25 à 12h jusqu'au 26 à 18h UTC


251100Z 2512/2618 21014KT 9999 FEW045
PROB30
TEMPO 2609/2612 8000 -RA
BECMG 2612/2615 17004KT
ATIS : +44 161 499 2324
Pas de NOTAMs connus pour ce terrain.



MET'MAP, la Météo Aéronautique d'un coup d'oeil ! - Copyright ORBIFLY Décembre 2007 - Disclaimer

ORBIFLY MET'MAP TEAM :

Programmation & Développement : Alexandra Zaïnal
Conception & Développement : Baudouin d'Aumeries
Co-Programmation & Développement : Marc-Olivier Méhu
Soutien technique & logistique : Manuel Goepfert

Contact : metmap@orbifly.com




SOURCES & CREDITS :

   NOAA